Time;durP1;ratioP1;P1;durP2;ratioP2;P2;SDS_P1;SDS_P2;PMS_P1;PMS_P2;Temp;Humidity;BMP_temperature;BMP_pressure;BME280_temperature;BME280_humidity;BME280_pressure;Samples;Min_cycle;Max_cycle;Signal;HPM_P1;HPM_P2
2023/05/10 00:00:13;;;;;;;10.65;8.80;;;14.60;99.90;;;;;;5068642;28;20434;-64
2023/05/10 00:02:39;;;;;;;19.65;13.45;;;15.70;99.90;;;;;;5069921;28;20052;-64
2023/05/10 00:05:05;;;;;;;32.95;21.17;;;14.50;99.90;;;;;;5067858;28;20052;-64
2023/05/10 00:07:30;;;;;;;23.05;17.98;;;15.60;99.90;;;;;;5069416;28;20071;-64
2023/05/10 00:09:56;;;;;;;23.15;19.65;;;15.90;99.90;;;;;;5069812;28;20431;-64
2023/05/10 00:12:22;;;;;;;33.92;26.52;;;14.30;99.90;;;;;;5070169;28;20455;-64
2023/05/10 00:14:47;;;;;;;21.70;19.27;;;14.70;99.90;;;;;;5069754;28;20069;-64
2023/05/10 00:17:14;;;;;;;22.42;18.30;;;14.20;99.90;;;;;;5069581;28;20043;-64
2023/05/10 00:19:39;;;;;;;20.10;18.10;;;14.10;99.90;;;;;;5068584;28;20062;-64
2023/05/10 00:22:05;;;;;;;21.20;19.02;;;14.30;99.90;;;;;;5069762;28;20040;-64
2023/05/10 00:24:30;;;;;;;21.00;18.90;;;14.40;99.90;;;;;;5069582;28;20115;-64
2023/05/10 00:26:56;;;;;;;18.10;16.27;;;16.00;99.90;;;;;;5069125;28;20036;-64
2023/05/10 00:29:21;;;;;;;19.90;17.80;;;14.30;99.90;;;;;;5069949;28;20044;-64
2023/05/10 00:31:47;;;;;;;17.15;14.88;;;15.30;99.90;;;;;;5068780;28;20044;-64
2023/05/10 00:34:12;;;;;;;19.73;17.63;;;15.30;99.90;;;;;;5068883;28;20454;-64
2023/05/10 00:36:38;;;;;;;17.23;15.50;;;16.00;99.90;;;;;;5068878;28;20041;-64
2023/05/10 00:39:04;;;;;;;15.93;14.43;;;15.00;99.90;;;;;;5067908;28;20052;-64
2023/05/10 00:41:32;;;;;;;12.88;11.57;;;14.20;99.90;;;;;;5069668;28;20069;-64
2023/05/10 00:43:58;;;;;;;10.98;9.88;;;15.90;99.90;;;;;;5069282;28;20044;-64
2023/05/10 00:46:24;;;;;;;15.27;11.57;;;14.30;99.90;;;;;;5068217;28;20502;-65
2023/05/10 00:48:50;;;;;;;30.67;25.63;;;15.70;99.90;;;;;;5069195;28;20041;-64
2023/05/10 00:51:16;;;;;;;38.75;25.77;;;14.40;99.90;;;;;;5069012;28;20055;-65
2023/05/10 00:53:42;;;;;;;47.90;23.25;;;15.60;99.90;;;;;;5064910;28;20515;-64
2023/05/10 00:56:08;;;;;;;69.68;25.05;;;15.90;99.90;;;;;;5050012;28;20517;-65
2023/05/10 00:58:33;;;;;;;66.18;28.05;;;16.00;99.90;;;;;;5061269;28;20064;-65
2023/05/10 01:01:00;;;;;;;73.18;25.60;;;15.70;99.90;;;;;;5068500;28;20127;-65
2023/05/10 01:03:26;;;;;;;52.72;23.40;;;16.10;99.90;;;;;;5067321;28;20044;-65
2023/05/10 01:05:51;;;;;;;52.40;29.73;;;15.70;99.90;;;;;;5068354;28;20495;-65
2023/05/10 01:08:17;;;;;;;41.45;25.70;;;14.80;99.90;;;;;;5068676;28;20032;-64
2023/05/10 01:10:43;;;;;;;19.80;16.30;;;16.20;99.90;;;;;;5084759;28;20417;-64
2023/05/10 01:13:10;;;;;;;18.75;16.40;;;14.80;99.90;;;;;;5069484;28;20047;-64
2023/05/10 01:15:36;;;;;;;18.88;16.17;;;15.60;99.90;;;;;;5069254;28;20074;-64
2023/05/10 01:18:02;;;;;;;18.92;17.13;;;16.00;99.90;;;;;;5068710;28;20502;-64
2023/05/10 01:20:35;;;;;;;16.38;14.43;;;14.00;99.90;;;;;;5064832;28;20116;-65
2023/05/10 01:23:45;;;;;;;14.52;11.18;;;15.70;99.90;;;;;;5068996;28;20045;-65
2023/05/10 01:26:55;;;;;;;15.80;13.40;;;14.80;99.90;;;;;;5076123;28;20044;-64
2023/05/10 01:29:24;;;;;;;17.50;12.82;;;14.30;99.90;;;;;;5068558;28;20560;-64
2023/05/10 01:32:32;;;;;;;28.33;15.18;;;14.10;99.90;;;;;;5068534;28;20040;-65
2023/05/10 01:35:14;;;;;;;18.88;14.85;;;14.60;99.90;;;;;;5053323;28;20040;-65
2023/05/10 01:37:50;;;;;;;22.05;15.30;;;15.70;99.90;;;;;;5072364;28;20102;-64
2023/05/10 01:40:57;;;;;;;24.80;17.48;;;15.40;99.90;;;;;;5071156;28;20048;-64
2023/05/10 01:43:30;;;;;;;15.63;11.88;;;14.10;99.90;;;;;;5090140;28;20044;-65
2023/05/10 01:46:10;;;;;;;17.77;13.45;;;16.70;99.90;;;;;;5073306;28;20052;-64
2023/05/10 01:48:41;;;;;;;19.35;14.95;;;14.60;99.90;;;;;;5071789;28;20044;-64
2023/05/10 01:51:07;;;;;;;20.52;16.63;;;16.00;99.90;;;;;;5071538;28;20075;-65
2023/05/10 01:53:37;;;;;;;17.65;14.85;;;15.50;99.90;;;;;;5072898;28;20150;-65
2023/05/10 01:56:04;;;;;;;18.30;13.13;;;14.00;99.90;;;;;;5072798;28;20117;-64
2023/05/10 01:58:32;;;;;;;14.32;12.32;;;14.30;99.90;;;;;;5072266;28;20036;-65
2023/05/10 02:01:01;;;;;;;12.38;10.93;;;14.50;99.90;;;;;;5071598;28;20482;-65
2023/05/10 02:03:28;;;;;;;11.07;10.00;;;15.40;99.90;;;;;;5071590;28;20040;-64
2023/05/10 02:05:55;;;;;;;11.13;8.20;;;14.10;99.90;;;;;;5072833;28;20047;-65
2023/05/10 02:08:22;;;;;;;10.50;9.40;;;16.10;99.90;;;;;;5071603;28;20146;-65
2023/05/10 02:10:52;;;;;;;7.18;6.50;;;14.10;99.90;;;;;;5069748;28;20098;-65
2023/05/10 02:13:18;;;;;;;7.65;6.82;;;15.00;99.90;;;;;;5072249;28;20059;-64
2023/05/10 02:15:47;;;;;;;6.45;5.85;;;15.70;99.90;;;;;;5072289;28;20052;-64
2023/05/10 02:18:15;;;;;;;5.53;5.13;;;15.20;99.90;;;;;;5070463;28;20090;-65
2023/05/10 02:20:41;;;;;;;5.50;5.03;;;14.40;99.90;;;;;;5066075;28;20521;-65
2023/05/10 02:23:09;;;;;;;5.47;5.07;;;14.70;99.90;;;;;;5072778;28;20439;-65
2023/05/10 02:25:36;;;;;;;6.22;5.53;;;14.90;99.90;;;;;;5072302;28;20045;-64
2023/05/10 02:28:05;;;;;;;6.00;5.50;;;15.90;99.90;;;;;;5071659;28;20059;-64
2023/05/10 02:30:32;;;;;;;6.82;6.22;;;16.00;99.90;;;;;;5067259;28;20041;-65
2023/05/10 02:32:59;;;;;;;6.28;5.78;;;14.40;99.90;;;;;;5066369;28;20037;-64
2023/05/10 02:35:27;;;;;;;6.95;6.20;;;15.20;99.90;;;;;;5071425;28;20044;-64
2023/05/10 02:37:54;;;;;;;8.25;7.55;;;14.20;99.90;;;;;;5067433;28;20059;-64
2023/05/10 02:40:22;;;;;;;8.63;7.82;;;14.90;99.90;;;;;;5070805;28;20044;-64
2023/05/10 02:42:49;;;;;;;8.00;7.30;;;14.40;99.90;;;;;;5070637;28;20490;-65
2023/05/10 02:45:23;;;;;;;8.05;7.25;;;14.50;99.90;;;;;;5060408;28;20044;-65
2023/05/10 02:47:48;;;;;;;8.20;7.03;;;14.70;99.90;;;;;;5065082;28;20048;-64
2023/05/10 02:50:14;;;;;;;5.90;5.22;;;15.90;99.90;;;;;;5071134;28;20083;-64
2023/05/10 02:52:45;;;;;;;4.95;4.47;;;15.90;99.90;;;;;;5070389;28;20040;-64
2023/05/10 02:55:14;;;;;;;5.03;3.53;;;14.20;99.90;;;;;;5071595;28;20048;-65
2023/05/10 02:57:50;;;;;;;4.00;3.63;;;14.70;99.90;;;;;;5071200;28;20571;-65
2023/05/10 03:00:16;;;;;;;5.20;4.47;;;16.50;99.90;;;;;;5071214;28;20040;-64
2023/05/10 03:02:41;;;;;;;5.63;4.80;;;15.00;99.90;;;;;;5070643;28;20037;-65
2023/05/10 03:05:07;;;;;;;5.80;5.30;;;14.90;99.90;;;;;;5068679;28;20049;-64
2023/05/10 03:07:33;;;;;;;6.70;5.60;;;14.50;99.90;;;;;;5050054;28;20502;-64
2023/05/10 03:10:00;;;;;;;6.22;5.63;;;16.30;99.90;;;;;;5067542;28;20409;-65
2023/05/10 03:12:53;;;;;;;5.07;4.78;;;16.40;99.90;;;;;;5071331;28;20032;-64
2023/05/10 03:15:30;;;;;;;6.03;5.63;;;16.30;99.90;;;;;;5069641;28;20106;-64
2023/05/10 03:18:15;;;;;;;5.88;5.38;;;15.70;99.90;;;;;;5070905;28;20079;-64
2023/05/10 03:20:48;;;;;;;5.50;5.10;;;15.60;99.90;;;;;;5070960;28;20123;-64
2023/05/10 03:23:21;;;;;;;5.38;4.97;;;16.00;99.90;;;;;;5071612;28;20055;-64
2023/05/10 03:25:48;;;;;;;5.40;4.20;;;14.70;99.90;;;;;;5071320;28;20075;-65
2023/05/10 03:28:16;;;;;;;4.05;3.75;;;14.80;99.90;;;;;;5069676;28;20032;-64
2023/05/10 03:30:43;;;;;;;4.45;4.05;;;16.40;99.90;;;;;;5071049;28;20533;-64
2023/05/10 03:33:08;;;;;;;5.25;4.55;;;16.40;99.90;;;;;;5069321;28;20505;-64
2023/05/10 03:35:34;;;;;;;6.15;5.38;;;15.20;99.90;;;;;;5070411;28;20048;-65
2023/05/10 03:38:00;;;;;;;9.75;6.00;;;16.60;99.90;;;;;;5070307;28;20151;-64
2023/05/10 03:40:28;;;;;;;6.85;6.15;;;14.40;99.90;;;;;;5070482;28;20052;-64
2023/05/10 03:42:55;;;;;;;5.75;5.25;;;15.40;99.90;;;;;;5070414;28;20098;-64
2023/05/10 03:45:20;;;;;;;8.45;6.40;;;16.30;99.90;;;;;;5066648;28;20094;-64
2023/05/10 03:47:46;;;;;;;6.95;6.40;;;16.40;99.90;;;;;;5070352;28;20040;-64
2023/05/10 03:50:12;;;;;;;6.50;5.93;;;14.70;99.90;;;;;;5069681;28;20069;-64
2023/05/10 03:52:38;;;;;;;7.60;6.93;;;14.40;99.90;;;;;;5067968;28;20040;-64
2023/05/10 03:55:05;;;;;;;7.38;6.78;;;15.00;99.90;;;;;;5069084;28;20506;-64
2023/05/10 03:57:31;;;;;;;7.90;7.20;;;16.00;99.90;;;;;;5065172;28;20041;-64
2023/05/10 03:59:56;;;;;;;10.75;8.32;;;16.40;99.90;;;;;;5069855;28;20047;-64
2023/05/10 04:02:22;;;;;;;9.40;8.57;;;16.70;99.90;;;;;;5070192;28;20041;-64
2023/05/10 04:04:48;;;;;;;7.70;7.00;;;15.10;99.90;;;;;;5070087;28;20506;-64
2023/05/10 04:07:14;;;;;;;8.25;7.47;;;14.40;99.90;;;;;;5069514;28;20066;-64
2023/05/10 04:09:39;;;;;;;8.10;7.30;;;15.10;99.90;;;;;;5069890;28;20115;-65
2023/05/10 04:12:05;;;;;;;7.22;6.60;;;16.10;99.90;;;;;;5069716;28;20040;-64
2023/05/10 04:14:31;;;;;;;8.40;7.55;;;15.10;99.90;;;;;;5069744;28;20035;-64
2023/05/10 04:16:56;;;;;;;8.07;6.57;;;16.30;99.90;;;;;;5068139;28;20029;-64
2023/05/10 04:19:22;;;;;;;7.75;7.05;;;15.30;99.90;;;;;;5067677;28;20036;-64
2023/05/10 04:21:48;;;;;;;8.88;7.95;;;15.90;99.90;;;;;;5068121;28;20047;-64
2023/05/10 04:24:13;;;;;;;8.25;7.32;;;16.30;99.90;;;;;;5069980;28;20444;-64
2023/05/10 04:26:39;;;;;;;7.03;6.43;;;16.10;99.90;;;;;;5070328;28;20074;-65
2023/05/10 04:29:05;;;;;;;7.28;6.57;;;14.50;99.90;;;;;;5069250;28;20490;-64
2023/05/10 04:31:30;;;;;;;7.53;6.70;;;14.70;99.90;;;;;;5069660;28;20037;-64
2023/05/10 04:33:56;;;;;;;7.25;6.55;;;14.50;99.90;;;;;;5069634;28;20035;-64
2023/05/10 04:36:21;;;;;;;9.10;8.20;;;15.50;99.90;;;;;;5069494;28;20045;-64
2023/05/10 04:38:47;;;;;;;9.13;8.23;;;16.20;99.90;;;;;;5069381;28;20082;-64
2023/05/10 04:41:12;;;;;;;8.02;7.25;;;16.70;99.90;;;;;;5069779;28;20087;-64
2023/05/10 04:43:38;;;;;;;9.57;6.90;;;14.40;99.90;;;;;;5068364;28;20040;-64
2023/05/10 04:46:04;;;;;;;7.80;6.35;;;17.10;99.90;;;;;;5051478;28;20063;-65
2023/05/10 04:48:30;;;;;;;11.20;7.15;;;15.80;99.90;;;;;;5058258;28;20655;-64
2023/05/10 04:50:56;;;;;;;10.30;5.90;;;14.50;99.90;;;;;;5069271;28;20064;-64
2023/05/10 04:53:22;;;;;;;6.45;5.90;;;14.50;99.90;;;;;;5069785;28;20044;-65
2023/05/10 04:55:47;;;;;;;6.32;5.03;;;16.60;99.90;;;;;;5067913;28;20592;-65
2023/05/10 04:58:13;;;;;;;7.25;5.80;;;14.60;99.90;;;;;;5069195;28;20051;-65
2023/05/10 05:00:39;;;;;;;8.52;6.30;;;16.60;99.90;;;;;;5067817;28;20048;-64
2023/05/10 05:03:05;;;;;;;7.88;6.03;;;16.70;99.90;;;;;;5067376;28;20036;-65
2023/05/10 05:05:30;;;;;;;10.18;7.10;;;15.00;99.90;;;;;;5066465;28;20045;-65
2023/05/10 05:07:56;;;;;;;11.20;7.53;;;15.20;99.90;;;;;;5064354;28;20071;-65
2023/05/10 05:10:21;;;;;;;12.68;9.05;;;14.70;99.90;;;;;;5061753;28;20064;-65
2023/05/10 05:12:47;;;;;;;14.00;12.43;;;16.10;99.90;;;;;;5067248;28;20041;-64
2023/05/10 05:15:13;;;;;;;17.83;13.43;;;16.30;99.90;;;;;;5066004;28;20029;-64
2023/05/10 05:17:38;;;;;;;15.27;11.52;;;14.50;99.90;;;;;;5065048;28;20064;-65
2023/05/10 05:20:04;;;;;;;23.88;13.10;;;14.80;99.90;;;;;;5066118;28;20066;-65
2023/05/10 05:22:30;;;;;;;22.80;11.15;;;15.80;99.90;;;;;;5066532;28;20036;-64
2023/05/10 05:24:57;;;;;;;23.95;11.05;;;16.70;99.90;;;;;;5063016;28;20044;-64
2023/05/10 05:27:25;;;;;;;33.35;12.25;;;15.40;99.90;;;;;;5067168;28;20025;-65
2023/05/10 05:29:53;;;;;;;29.80;10.63;;;15.10;99.90;;;;;;5067062;28;20036;-65
2023/05/10 05:32:19;;;;;;;25.05;10.15;;;16.80;99.90;;;;;;5066057;28;20037;-64
2023/05/10 05:34:45;;;;;;;25.33;9.27;;;14.90;99.90;;;;;;5067210;28;20111;-65
2023/05/10 05:37:19;;;;;;;29.83;8.60;;;14.90;99.90;;;;;;5068382;28;20028;-65
2023/05/10 05:39:45;;;;;;;28.70;9.05;;;16.40;99.90;;;;;;5062154;28;20059;-72
2023/05/10 05:42:11;;;;;;;37.38;9.23;;;14.90;99.90;;;;;;5063428;28;20041;-65
2023/05/10 05:44:37;;;;;;;32.08;7.88;;;14.80;99.90;;;;;;5058280;28;20073;-64
2023/05/10 05:47:03;;;;;;;24.50;8.18;;;15.90;99.90;;;;;;5062609;28;20123;-65
2023/05/10 05:49:28;;;;;;;18.48;7.65;;;16.00;99.90;;;;;;5068181;28;20067;-65
2023/05/10 05:51:54;;;;;;;25.40;8.27;;;14.60;99.90;;;;;;5059758;28;20154;-64
2023/05/10 05:54:20;;;;;;;15.07;7.18;;;14.80;99.90;;;;;;5063314;28;20047;-64
2023/05/10 05:56:45;;;;;;;14.15;6.53;;;14.60;99.90;;;;;;5067532;28;20495;-65
2023/05/10 05:59:11;;;;;;;15.98;6.63;;;14.80;99.90;;;;;;5067571;28;20051;-65
2023/05/10 06:01:37;;;;;;;13.98;6.47;;;15.50;99.90;;;;;;5065296;28;20071;-65
2023/05/10 06:04:02;;;;;;;9.98;5.93;;;16.20;99.90;;;;;;5065382;28;20041;-65
2023/05/10 06:06:28;;;;;;;7.47;6.05;;;14.70;99.90;;;;;;5065276;28;20513;-65
2023/05/10 06:08:54;;;;;;;8.30;5.65;;;16.20;99.90;;;;;;5061537;28;20048;-65
2023/05/10 06:11:20;;;;;;;11.20;6.07;;;16.20;99.90;;;;;;5062308;28;20048;-65
2023/05/10 06:13:46;;;;;;;6.85;5.35;;;15.90;99.90;;;;;;5057785;28;20048;-65
2023/05/10 06:16:13;;;;;;;8.73;6.38;;;14.60;99.90;;;;;;5061356;28;20033;-66
2023/05/10 06:18:38;;;;;;;7.95;6.05;;;14.60;99.90;;;;;;5063303;28;20045;-65
2023/05/10 06:21:04;;;;;;;11.55;6.63;;;16.40;99.90;;;;;;5057795;28;20051;-64
2023/05/10 06:23:29;;;;;;;8.10;5.90;;;15.40;99.90;;;;;;5067070;28;20055;-64
2023/05/10 06:25:55;;;;;;;10.30;6.78;;;15.00;99.90;;;;;;5066347;28;20406;-63
2023/05/10 06:28:21;;;;;;;8.73;6.90;;;16.20;99.90;;;;;;5065761;28;20126;-63
2023/05/10 06:30:46;;;;;;;12.00;7.70;;;15.20;99.90;;;;;;5065341;28;20055;-65
2023/05/10 06:33:12;;;;;;;9.07;6.78;;;14.60;99.90;;;;;;5082623;28;20076;-65
2023/05/10 06:35:38;;;;;;;11.27;8.32;;;16.90;99.90;;;;;;5067093;28;20498;-66
2023/05/10 06:38:04;;;;;;;12.00;8.70;;;16.20;99.90;;;;;;5063732;28;20059;-66
2023/05/10 06:40:30;;;;;;;12.77;8.05;;;16.90;99.90;;;;;;5051036;28;20972;-66
2023/05/10 06:42:55;;;;;;;13.00;7.78;;;16.70;99.90;;;;;;5072861;28;20040;-65
2023/05/10 06:45:21;;;;;;;10.18;7.65;;;14.70;99.90;;;;;;5060468;28;20410;-66
2023/05/10 06:47:47;;;;;;;11.57;8.30;;;16.40;99.90;;;;;;5070375;28;20040;-65
2023/05/10 06:50:12;;;;;;;11.38;7.68;;;14.70;99.90;;;;;;5061847;28;20024;-65
2023/05/10 06:52:38;;;;;;;11.00;8.70;;;16.60;99.90;;;;;;5062213;28;20115;-64
2023/05/10 06:55:05;;;;;;;9.80;7.72;;;15.70;99.90;;;;;;5063572;28;20521;-66
2023/05/10 06:57:31;;;;;;;8.68;6.97;;;16.40;99.90;;;;;;5063673;28;20040;-65
2023/05/10 06:59:58;;;;;;;8.18;6.78;;;15.30;99.90;;;;;;5064534;28;20040;-65
2023/05/10 07:02:24;;;;;;;8.20;6.30;;;17.20;99.90;;;;;;5053455;28;20457;-66
2023/05/10 07:04:51;;;;;;;7.35;6.10;;;15.40;99.90;;;;;;5060059;28;20040;-66
2023/05/10 07:07:17;;;;;;;6.35;5.50;;;15.30;99.90;;;;;;5061913;28;20510;-66
2023/05/10 07:09:42;;;;;;;6.10;5.50;;;15.60;99.90;;;;;;5052652;28;20039;-66
2023/05/10 07:12:08;;;;;;;6.10;5.25;;;15.00;99.90;;;;;;5065596;28;20123;-65
2023/05/10 07:14:33;;;;;;;7.63;6.18;;;15.40;99.90;;;;;;5065505;28;20076;-66
2023/05/10 07:16:59;;;;;;;9.52;6.00;;;16.10;99.90;;;;;;5057053;28;20102;-66
2023/05/10 07:19:24;;;;;;;6.10;5.50;;;15.40;99.90;;;;;;5058341;28;20422;-66
2023/05/10 07:21:50;;;;;;;8.10;6.13;;;17.40;99.90;;;;;;5065215;28;20048;-66
2023/05/10 07:24:16;;;;;;;8.63;5.60;;;16.70;99.90;;;;;;5068892;28;20063;-66
2023/05/10 07:26:41;;;;;;;7.18;6.38;;;15.30;99.90;;;;;;5068793;28;20036;-66
2023/05/10 07:29:07;;;;;;;8.88;6.65;;;17.60;99.90;;;;;;5064086;28;20071;-66
2023/05/10 07:31:33;;;;;;;6.70;5.50;;;15.50;99.90;;;;;;5064381;28;20051;-66
2023/05/10 07:33:58;;;;;;;5.35;4.85;;;15.50;99.90;;;;;;5064788;28;20124;-66
2023/05/10 07:36:24;;;;;;;8.23;5.85;;;17.40;99.90;;;;;;5069095;28;20361;-66
2023/05/10 07:38:49;;;;;;;8.38;5.95;;;18.00;99.90;;;;;;5065421;28;20041;-66
2023/05/10 07:41:15;;;;;;;8.20;6.65;;;16.90;99.90;;;;;;5065335;28;20129;-66
2023/05/10 07:43:40;;;;;;;7.95;6.85;;;16.30;99.90;;;;;;5067164;28;20037;-66
2023/05/10 07:46:06;;;;;;;8.63;7.30;;;16.20;99.90;;;;;;5059541;28;20037;-66
2023/05/10 07:48:33;;;;;;;8.27;7.45;;;17.90;99.90;;;;;;5080398;28;20437;-66
2023/05/10 07:50:58;;;;;;;8.23;6.75;;;17.50;99.90;;;;;;5065617;28;20028;-66
2023/05/10 07:53:26;;;;;;;7.13;6.43;;;16.60;99.90;;;;;;5064020;28;20067;-66
2023/05/10 07:55:56;;;;;;;8.80;7.75;;;15.90;99.90;;;;;;5067424;28;20506;-66
2023/05/10 07:58:22;;;;;;;8.80;7.97;;;15.80;99.90;;;;;;5068938;28;20036;-66
2023/05/10 08:00:49;;;;;;;10.40;8.68;;;18.30;99.90;;;;;;5060340;28;20592;-66
2023/05/10 08:03:14;;;;;;;11.82;9.88;;;16.40;99.90;;;;;;5064160;28;20032;-66
2023/05/10 08:05:40;;;;;;;12.45;10.55;;;17.40;99.90;;;;;;5065484;28;20495;-66
2023/05/10 08:08:06;;;;;;;12.88;10.63;;;16.80;99.90;;;;;;5059853;28;20040;-66
2023/05/10 08:10:32;;;;;;;13.43;10.73;;;15.70;99.90;;;;;;5061758;28;20043;-66
2023/05/10 08:12:58;;;;;;;12.27;10.93;;;18.00;99.90;;;;;;5060487;28;20424;-66
2023/05/10 08:15:24;;;;;;;15.10;12.75;;;17.70;99.90;;;;;;5064403;28;20048;-66
2023/05/10 08:17:51;;;;;;;14.75;12.02;;;17.60;99.90;;;;;;5059621;28;20044;-66
2023/05/10 08:20:18;;;;;;;12.52;11.20;;;17.40;99.90;;;;;;5065742;28;20033;-66
2023/05/10 08:22:45;;;;;;;13.18;10.55;;;16.80;99.90;;;;;;5065528;28;20048;-66
2023/05/10 08:25:10;;;;;;;15.80;12.85;;;15.80;99.90;;;;;;5063543;28;21700;-67
2023/05/10 08:27:36;;;;;;;13.75;10.68;;;16.10;99.90;;;;;;5068331;28;20039;-66
2023/05/10 08:30:02;;;;;;;14.05;11.00;;;17.00;99.90;;;;;;5079432;28;20133;-67
2023/05/10 08:32:27;;;;;;;14.50;12.10;;;17.90;99.90;;;;;;5062791;28;20048;-67
2023/05/10 08:34:53;;;;;;;15.05;11.77;;;18.10;99.90;;;;;;5060844;28;20036;-66
2023/05/10 08:37:18;;;;;;;15.85;12.05;;;17.80;99.90;;;;;;5060220;28;20062;-66
2023/05/10 08:39:47;;;;;;;12.35;11.05;;;16.20;99.90;;;;;;5064533;28;20175;-66
2023/05/10 08:42:18;;;;;;;12.77;10.80;;;16.50;99.90;;;;;;5062603;28;20052;-67
2023/05/10 08:44:46;;;;;;;10.80;9.45;;;18.10;99.90;;;;;;5062326;28;20044;-66
2023/05/10 08:47:14;;;;;;;10.70;9.45;;;18.10;99.90;;;;;;5056387;28;20079;-70
2023/05/10 08:49:41;;;;;;;8.60;7.80;;;16.10;99.90;;;;;;5063925;28;20048;-70
2023/05/10 08:52:07;;;;;;;10.57;9.48;;;17.30;99.90;;;;;;5064416;28;20032;-70
2023/05/10 08:54:34;;;;;;;11.57;10.43;;;16.50;99.90;;;;;;5081310;28;20572;-70
2023/05/10 08:57:00;;;;;;;9.98;8.95;;;17.60;99.90;;;;;;5065792;28;20492;-70
2023/05/10 08:59:25;;;;;;;14.93;12.45;;;17.10;99.90;;;;;;5064843;28;20127;-70
2023/05/10 09:01:53;;;;;;;17.75;14.27;;;16.70;99.90;;;;;;5066145;28;20131;-70
2023/05/10 09:04:19;;;;;;;17.88;13.82;;;16.70;99.90;;;;;;5065775;28;20067;-70
2023/05/10 09:06:45;;;;;;;22.90;15.48;;;18.30;99.90;;;;;;5061284;28;20076;-70
2023/05/10 09:09:10;;;;;;;17.40;12.27;;;16.30;99.90;;;;;;5055116;28;20067;-70
2023/05/10 09:11:36;;;;;;;13.95;12.40;;;16.70;99.90;;;;;;5064764;28;20041;-70
2023/05/10 09:14:02;;;;;;;14.77;13.18;;;16.70;99.90;;;;;;5060097;28;20040;-69
2023/05/10 09:16:28;;;;;;;13.70;12.30;;;17.80;99.90;;;;;;5064692;28;20044;-70
2023/05/10 09:18:53;;;;;;;13.23;11.93;;;16.20;99.90;;;;;;5064404;28;20494;-70
2023/05/10 09:21:20;;;;;;;14.15;12.60;;;17.70;99.90;;;;;;5047155;28;20417;-70
2023/05/10 09:23:47;;;;;;;17.23;14.43;;;17.90;99.90;;;;;;5064852;28;20060;-70
2023/05/10 09:26:12;;;;;;;13.07;11.73;;;16.40;99.90;;;;;;5063451;28;20040;-71
2023/05/10 09:28:58;;;;;;;15.80;14.13;;;18.10;99.90;;;;;;5051901;28;20036;-70
2023/05/10 09:31:27;;;;;;;15.82;14.30;;;17.60;99.90;;;;;;5048222;28;20151;-70
2023/05/10 09:33:53;;;;;;;18.27;15.85;;;17.80;99.90;;;;;;5060461;28;20048;-70
2023/05/10 09:36:19;;;;;;;22.05;19.60;;;16.80;99.90;;;;;;5064640;28;20155;-70
2023/05/10 09:38:47;;;;;;;20.58;17.92;;;16.40;99.90;;;;;;5063373;28;20068;-70
2023/05/10 09:41:23;;;;;;;16.35;14.65;;;16.60;99.90;;;;;;5064654;28;20048;-70
2023/05/10 09:43:49;;;;;;;15.70;14.10;;;18.70;99.90;;;;;;5065254;28;20040;-70
2023/05/10 09:46:16;;;;;;;19.58;17.58;;;17.60;99.90;;;;;;5063532;28;20037;-70
2023/05/10 09:48:47;;;;;;;17.25;15.02;;;19.80;99.90;;;;;;5058455;28;20321;-70
2023/05/10 09:51:26;;;;;;;20.17;17.13;;;18.50;99.90;;;;;;5063421;28;20053;-70
2023/05/10 09:54:15;;;;;;;17.25;15.43;;;17.00;99.90;;;;;;5061314;28;20037;-70
2023/05/10 09:56:41;;;;;;;20.52;17.88;;;17.40;99.90;;;;;;5060715;28;20127;-70
2023/05/10 09:59:11;;;;;;;19.35;17.45;;;18.80;99.90;;;;;;5063477;28;20063;-70
2023/05/10 10:01:38;;;;;;;26.63;17.27;;;18.30;99.90;;;;;;5061620;28;20040;-70
2023/05/10 10:04:05;;;;;;;18.00;15.07;;;17.10;99.90;;;;;;5063427;28;20125;-70
2023/05/10 10:06:36;;;;;;;17.48;15.68;;;17.10;99.90;;;;;;5066761;28;20053;-70
2023/05/10 10:09:02;;;;;;;16.77;13.57;;;18.30;99.90;;;;;;5064797;28;20077;-70
2023/05/10 10:11:28;;;;;;;13.43;12.02;;;18.70;99.90;;;;;;5067302;28;20040;-70
2023/05/10 10:13:54;;;;;;;12.88;11.57;;;17.00;99.90;;;;;;5065491;28;20037;-70
2023/05/10 10:16:21;;;;;;;11.27;10.07;;;19.20;99.90;;;;;;5067093;28;20086;-70
2023/05/10 10:18:47;;;;;;;12.00;9.77;;;19.00;99.90;;;;;;5064586;28;20580;-69
2023/05/10 10:21:14;;;;;;;15.40;11.82;;;18.10;99.90;;;;;;5048133;28;20064;-70
2023/05/10 10:23:40;;;;;;;13.57;12.13;;;17.30;99.90;;;;;;5065764;28;20173;-70
2023/05/10 10:26:07;;;;;;;12.43;10.52;;;17.90;99.90;;;;;;5063639;28;20041;-70
2023/05/10 10:28:49;;;;;;;9.30;8.40;;;19.00;99.90;;;;;;5064086;28;20041;-70
2023/05/10 10:31:24;;;;;;;10.70;9.60;;;18.50;99.90;;;;;;5060892;28;20056;-69
2023/05/10 10:33:59;;;;;;;10.27;9.30;;;17.10;99.90;;;;;;5050282;28;20777;-70
2023/05/10 10:36:26;;;;;;;12.35;10.90;;;17.20;99.90;;;;;;5067919;28;20048;-70
2023/05/10 10:39:00;;;;;;;12.07;10.82;;;19.00;99.90;;;;;;5062200;28;20056;-70
2023/05/10 10:41:36;;;;;;;10.15;9.20;;;18.60;99.90;;;;;;5067252;28;20127;-70
2023/05/10 10:44:30;;;;;;;12.18;11.07;;;17.30;99.90;;;;;;5048123;28;20041;-70
2023/05/10 10:47:05;;;;;;;12.10;10.95;;;18.90;99.90;;;;;;5066633;28;20522;-70
2023/05/10 10:49:33;;;;;;;13.32;11.15;;;18.10;99.90;;;;;;5066349;28;20040;-70
2023/05/10 10:52:26;;;;;;;13.60;12.23;;;18.20;99.90;;;;;;5064526;28;20032;-70
2023/05/10 10:55:01;;;;;;;14.27;12.98;;;17.20;99.90;;;;;;5061304;28;20036;-70
2023/05/10 10:57:29;;;;;;;15.60;13.52;;;18.70;99.90;;;;;;5060320;28;20076;-70
2023/05/10 11:00:18;;;;;;;16.58;14.88;;;17.60;99.90;;;;;;5064493;28;20052;-70
2023/05/10 11:03:03;;;;;;;17.38;15.57;;;17.50;99.90;;;;;;5067306;28;20057;-70
2023/05/10 11:05:48;;;;;;;17.45;15.38;;;17.80;99.90;;;;;;5063088;28;20105;-70
2023/05/10 11:08:27;;;;;;;16.25;14.63;;;18.70;99.90;;;;;;5055109;28;20033;-70
2023/05/10 11:10:59;;;;;;;17.48;15.30;;;18.50;99.90;;;;;;5062089;28;20040;-70
2023/05/10 11:13:34;;;;;;;19.17;16.95;;;17.60;99.90;;;;;;5061852;28;20055;-70
2023/05/10 11:16:11;;;;;;;22.42;18.33;;;17.60;99.90;;;;;;5085217;28;20051;-70
2023/05/10 11:18:37;;;;;;;22.83;17.92;;;18.20;99.90;;;;;;5056018;28;20117;-69
2023/05/10 11:21:04;;;;;;;25.83;20.73;;;18.50;99.90;;;;;;5062971;28;20040;-70
2023/05/10 11:23:58;;;;;;;25.42;21.25;;;17.70;99.90;;;;;;5048625;28;20047;-70
2023/05/10 11:26:34;;;;;;;20.90;18.52;;;18.90;99.90;;;;;;5064813;28;20044;-70
2023/05/10 11:29:02;;;;;;;25.77;20.73;;;17.80;99.90;;;;;;5064633;28;20037;-70
2023/05/10 11:31:28;;;;;;;27.05;21.83;;;18.40;99.90;;;;;;5063986;28;20181;-69
2023/05/10 11:33:56;;;;;;;24.10;19.17;;;18.10;99.90;;;;;;5063294;28;20044;-70
2023/05/10 11:36:25;;;;;;;24.70;20.95;;;19.20;99.90;;;;;;5055989;28;20047;-70
2023/05/10 11:38:51;;;;;;;22.83;17.33;;;19.20;99.90;;;;;;5062319;28;20060;-70
2023/05/10 11:41:18;;;;;;;24.23;21.25;;;18.10;99.90;;;;;;5064932;28;20060;-70
2023/05/10 11:43:46;;;;;;;26.88;22.48;;;18.50;99.90;;;;;;5066242;28;20044;-70
2023/05/10 11:46:13;;;;;;;30.88;25.50;;;17.80;99.90;;;;;;5064292;28;20116;-70
2023/05/10 11:48:39;;;;;;;26.73;23.40;;;18.50;99.90;;;;;;5052047;28;20556;-70
2023/05/10 11:51:06;;;;;;;24.33;20.67;;;19.20;99.90;;;;;;5065472;28;20098;-70
2023/05/10 11:53:32;;;;;;;26.75;23.23;;;18.70;99.90;;;;;;5065312;28;20534;-70
2023/05/10 11:56:08;;;;;;;29.38;22.65;;;17.90;99.90;;;;;;5066486;28;20483;-70
2023/05/10 11:58:34;;;;;;;21.38;18.17;;;18.40;99.90;;;;;;5063517;28;20102;-70
2023/05/10 12:01:00;;;;;;;26.58;20.48;;;19.00;99.90;;;;;;5060872;28;20099;-70
2023/05/10 12:03:30;;;;;;;27.10;23.63;;;18.90;99.90;;;;;;5065943;28;20033;-70
2023/05/10 12:05:57;;;;;;;24.13;19.15;;;18.90;99.90;;;;;;5063758;28;20048;-70
2023/05/10 12:08:24;;;;;;;24.88;21.20;;;19.10;99.90;;;;;;5062847;28;20107;-70
2023/05/10 12:10:51;;;;;;;26.10;20.30;;;17.90;99.90;;;;;;5064688;28;20035;-70
2023/05/10 12:13:17;;;;;;;25.23;19.10;;;18.40;99.90;;;;;;5060328;28;20139;-70
2023/05/10 12:15:43;;;;;;;22.92;18.17;;;18.70;99.90;;;;;;5064158;28;20076;-70
2023/05/10 12:18:10;;;;;;;22.55;17.95;;;19.30;99.90;;;;;;5044835;28;20502;-70
2023/05/10 12:20:36;;;;;;;19.95;17.83;;;19.20;99.90;;;;;;5061182;28;20044;-70
2023/05/10 12:23:03;;;;;;;26.27;21.23;;;19.50;99.90;;;;;;5058877;28;20044;-70
2023/05/10 12:25:33;;;;;;;30.55;22.30;;;19.60;99.90;;;;;;5060190;28;20048;-70
2023/05/10 12:28:00;;;;;;;31.17;23.60;;;19.60;99.90;;;;;;5063665;28;20047;-70
2023/05/10 12:30:31;;;;;;;28.98;20.90;;;18.90;99.90;;;;;;5066631;28;20498;-70
2023/05/10 12:33:08;;;;;;;25.88;20.75;;;18.70;99.90;;;;;;5065880;28;20036;-70
2023/05/10 12:35:50;;;;;;;25.10;20.13;;;20.00;99.90;;;;;;5057336;28;20044;-70
2023/05/10 12:38:37;;;;;;;23.27;20.55;;;19.50;99.90;;;;;;5045287;28;20056;-70
2023/05/10 12:41:05;;;;;;;18.83;16.88;;;18.80;99.90;;;;;;5065496;28;20119;-70